sensor_id;sensor_type;location;lat;lon;timestamp;temperature;humidity
5346;DHT22;2695;49.444;11.054;2023-08-20T00:00:37;26.40;99.90
5346;DHT22;2695;49.444;11.054;2023-08-20T00:03:11;26.40;99.90
5346;DHT22;2695;49.444;11.054;2023-08-20T00:05:40;26.40;99.90
5346;DHT22;2695;49.444;11.054;2023-08-20T00:08:09;26.30;99.90
5346;DHT22;2695;49.444;11.054;2023-08-20T00:10:38;26.40;99.90
5346;DHT22;2695;49.444;11.054;2023-08-20T00:13:06;26.20;99.90
5346;DHT22;2695;49.444;11.054;2023-08-20T00:15:34;26.30;99.90
5346;DHT22;2695;49.444;11.054;2023-08-20T00:18:02;26.30;99.90
5346;DHT22;2695;49.444;11.054;2023-08-20T00:20:31;26.40;99.90
5346;DHT22;2695;49.444;11.054;2023-08-20T00:23:00;26.40;99.90
5346;DHT22;2695;49.444;11.054;2023-08-20T00:25:31;26.40;99.90
5346;DHT22;2695;49.444;11.054;2023-08-20T00:28:00;26.40;99.90
5346;DHT22;2695;49.444;11.054;2023-08-20T00:30:28;26.40;99.90
5346;DHT22;2695;49.444;11.054;2023-08-20T00:32:56;26.30;99.90
5346;DHT22;2695;49.444;11.054;2023-08-20T00:35:24;26.40;99.90
5346;DHT22;2695;49.444;11.054;2023-08-20T00:37:52;26.30;99.90
5346;DHT22;2695;49.444;11.054;2023-08-20T00:40:20;26.30;99.90
5346;DHT22;2695;49.444;11.054;2023-08-20T00:42:50;26.30;99.90
5346;DHT22;2695;49.444;11.054;2023-08-20T00:45:18;26.30;99.90
5346;DHT22;2695;49.444;11.054;2023-08-20T00:47:46;26.30;99.90
5346;DHT22;2695;49.444;11.054;2023-08-20T00:50:15;26.20;99.90
5346;DHT22;2695;49.444;11.054;2023-08-20T00:52:43;26.20;99.90
5346;DHT22;2695;49.444;11.054;2023-08-20T00:55:12;26.20;99.90
5346;DHT22;2695;49.444;11.054;2023-08-20T00:57:41;26.00;99.90
5346;DHT22;2695;49.444;11.054;2023-08-20T01:00:11;26.10;99.90
5346;DHT22;2695;49.444;11.054;2023-08-20T01:02:40;26.10;99.90
5346;DHT22;2695;49.444;11.054;2023-08-20T01:05:11;26.10;99.90
5346;DHT22;2695;49.444;11.054;2023-08-20T01:07:58;26.10;99.90
5346;DHT22;2695;49.444;11.054;2023-08-20T01:10:34;26.10;99.90
5346;DHT22;2695;49.444;11.054;2023-08-20T01:13:04;26.00;99.90
5346;DHT22;2695;49.444;11.054;2023-08-20T01:15:35;26.00;99.90
5346;DHT22;2695;49.444;11.054;2023-08-20T01:18:03;26.00;99.90
5346;DHT22;2695;49.444;11.054;2023-08-20T01:20:35;26.00;99.90
5346;DHT22;2695;49.444;11.054;2023-08-20T01:23:39;26.00;99.90
5346;DHT22;2695;49.444;11.054;2023-08-20T01:26:40;26.00;99.90
5346;DHT22;2695;49.444;11.054;2023-08-20T01:29:13;26.00;99.90
5346;DHT22;2695;49.444;11.054;2023-08-20T01:31:43;25.90;99.90
5346;DHT22;2695;49.444;11.054;2023-08-20T01:34:12;25.90;99.90
5346;DHT22;2695;49.444;11.054;2023-08-20T01:36:40;25.80;99.90
5346;DHT22;2695;49.444;11.054;2023-08-20T01:39:08;25.80;99.90
5346;DHT22;2695;49.444;11.054;2023-08-20T01:41:36;25.70;99.90
5346;DHT22;2695;49.444;11.054;2023-08-20T01:44:04;25.70;99.90
5346;DHT22;2695;49.444;11.054;2023-08-20T01:46:33;25.70;99.90
5346;DHT22;2695;49.444;11.054;2023-08-20T01:49:01;25.60;99.90
5346;DHT22;2695;49.444;11.054;2023-08-20T01:51:30;25.60;99.90
5346;DHT22;2695;49.444;11.054;2023-08-20T01:53:58;25.60;99.90
5346;DHT22;2695;49.444;11.054;2023-08-20T01:56:25;25.60;99.90
5346;DHT22;2695;49.444;11.054;2023-08-20T01:58:53;25.70;99.90
5346;DHT22;2695;49.444;11.054;2023-08-20T02:01:21;25.50;99.90
5346;DHT22;2695;49.444;11.054;2023-08-20T02:03:51;25.40;99.90
5346;DHT22;2695;49.444;11.054;2023-08-20T02:06:18;25.50;99.90
5346;DHT22;2695;49.444;11.054;2023-08-20T02:08:46;25.40;99.90
5346;DHT22;2695;49.444;11.054;2023-08-20T02:11:15;25.40;99.90
5346;DHT22;2695;49.444;11.054;2023-08-20T02:13:43;25.60;99.90
5346;DHT22;2695;49.444;11.054;2023-08-20T02:16:11;25.30;99.90
5346;DHT22;2695;49.444;11.054;2023-08-20T02:18:39;25.30;99.90
5346;DHT22;2695;49.444;11.054;2023-08-20T02:21:08;25.20;99.90
5346;DHT22;2695;49.444;11.054;2023-08-20T02:23:36;25.20;99.90
5346;DHT22;2695;49.444;11.054;2023-08-20T02:26:04;25.10;99.90
5346;DHT22;2695;49.444;11.054;2023-08-20T02:28:32;25.10;99.90
5346;DHT22;2695;49.444;11.054;2023-08-20T02:31:04;25.00;99.90
5346;DHT22;2695;49.444;11.054;2023-08-20T02:33:32;25.00;99.90
5346;DHT22;2695;49.444;11.054;2023-08-20T02:36:01;25.00;99.90
5346;DHT22;2695;49.444;11.054;2023-08-20T02:38:31;25.00;99.90
5346;DHT22;2695;49.444;11.054;2023-08-20T02:40:59;25.00;99.90
5346;DHT22;2695;49.444;11.054;2023-08-20T02:43:26;24.90;99.90
5346;DHT22;2695;49.444;11.054;2023-08-20T02:45:54;24.90;99.90
5346;DHT22;2695;49.444;11.054;2023-08-20T02:48:23;24.90;99.90
5346;DHT22;2695;49.444;11.054;2023-08-20T02:50:53;24.80;99.90
5346;DHT22;2695;49.444;11.054;2023-08-20T02:53:22;24.90;99.90
5346;DHT22;2695;49.444;11.054;2023-08-20T02:55:51;24.90;99.90
5346;DHT22;2695;49.444;11.054;2023-08-20T02:58:19;24.80;99.90
5346;DHT22;2695;49.444;11.054;2023-08-20T03:00:47;24.70;99.90
5346;DHT22;2695;49.444;11.054;2023-08-20T03:03:15;24.70;99.90
5346;DHT22;2695;49.444;11.054;2023-08-20T03:05:43;24.60;99.90
5346;DHT22;2695;49.444;11.054;2023-08-20T03:08:11;24.50;99.90
5346;DHT22;2695;49.444;11.054;2023-08-20T03:10:39;24.50;99.90
5346;DHT22;2695;49.444;11.054;2023-08-20T03:13:08;24.50;99.90
5346;DHT22;2695;49.444;11.054;2023-08-20T03:15:36;24.50;99.90
5346;DHT22;2695;49.444;11.054;2023-08-20T03:18:05;24.50;99.90
5346;DHT22;2695;49.444;11.054;2023-08-20T03:20:33;24.40;99.90
5346;DHT22;2695;49.444;11.054;2023-08-20T03:23:01;24.40;99.90
5346;DHT22;2695;49.444;11.054;2023-08-20T03:25:29;24.40;99.90
5346;DHT22;2695;49.444;11.054;2023-08-20T03:27:57;24.40;99.90
5346;DHT22;2695;49.444;11.054;2023-08-20T03:30:26;24.30;99.90
5346;DHT22;2695;49.444;11.054;2023-08-20T03:32:54;24.30;99.90
5346;DHT22;2695;49.444;11.054;2023-08-20T03:35:22;24.30;99.90
5346;DHT22;2695;49.444;11.054;2023-08-20T03:37:50;24.30;99.90
5346;DHT22;2695;49.444;11.054;2023-08-20T03:40:18;24.30;99.90
5346;DHT22;2695;49.444;11.054;2023-08-20T03:42:46;24.20;99.90
5346;DHT22;2695;49.444;11.054;2023-08-20T03:45:14;24.30;99.90
5346;DHT22;2695;49.444;11.054;2023-08-20T03:47:43;24.00;99.90
5346;DHT22;2695;49.444;11.054;2023-08-20T03:50:14;24.20;99.90
5346;DHT22;2695;49.444;11.054;2023-08-20T03:52:41;24.20;99.90
5346;DHT22;2695;49.444;11.054;2023-08-20T03:55:09;24.20;99.90
5346;DHT22;2695;49.444;11.054;2023-08-20T03:57:37;24.10;99.90
5346;DHT22;2695;49.444;11.054;2023-08-20T04:00:06;24.20;99.90
5346;DHT22;2695;49.444;11.054;2023-08-20T04:02:36;24.10;99.90
5346;DHT22;2695;49.444;11.054;2023-08-20T04:05:06;24.10;99.90
5346;DHT22;2695;49.444;11.054;2023-08-20T04:07:34;24.10;99.90
5346;DHT22;2695;49.444;11.054;2023-08-20T04:10:02;24.10;99.90
5346;DHT22;2695;49.444;11.054;2023-08-20T04:12:30;24.00;99.90
5346;DHT22;2695;49.444;11.054;2023-08-20T04:14:58;24.00;99.90
5346;DHT22;2695;49.444;11.054;2023-08-20T04:17:26;24.10;99.90
5346;DHT22;2695;49.444;11.054;2023-08-20T04:19:54;24.00;99.90
5346;DHT22;2695;49.444;11.054;2023-08-20T04:22:23;24.00;99.90
5346;DHT22;2695;49.444;11.054;2023-08-20T04:24:51;24.10;99.90
5346;DHT22;2695;49.444;11.054;2023-08-20T04:27:19;24.10;99.90
5346;DHT22;2695;49.444;11.054;2023-08-20T04:29:47;24.10;99.90
5346;DHT22;2695;49.444;11.054;2023-08-20T04:32:15;24.10;99.90
5346;DHT22;2695;49.444;11.054;2023-08-20T04:34:47;24.10;99.90
5346;DHT22;2695;49.444;11.054;2023-08-20T04:37:16;24.20;99.90
5346;DHT22;2695;49.444;11.054;2023-08-20T04:39:45;24.20;99.90
5346;DHT22;2695;49.444;11.054;2023-08-20T04:42:13;24.30;99.90
5346;DHT22;2695;49.444;11.054;2023-08-20T04:44:41;24.40;99.90
5346;DHT22;2695;49.444;11.054;2023-08-20T04:47:11;24.60;99.90
5346;DHT22;2695;49.444;11.054;2023-08-20T04:49:39;24.90;99.90
5346;DHT22;2695;49.444;11.054;2023-08-20T04:52:07;25.20;99.90
5346;DHT22;2695;49.444;11.054;2023-08-20T04:54:35;25.80;99.90
5346;DHT22;2695;49.444;11.054;2023-08-20T04:57:04;26.10;99.90
5346;DHT22;2695;49.444;11.054;2023-08-20T04:59:32;26.40;99.90
5346;DHT22;2695;49.444;11.054;2023-08-20T05:02:01;26.90;99.90
5346;DHT22;2695;49.444;11.054;2023-08-20T05:04:29;27.20;99.90
5346;DHT22;2695;49.444;11.054;2023-08-20T05:06:57;27.30;99.90
5346;DHT22;2695;49.444;11.054;2023-08-20T05:09:25;27.40;99.90
5346;DHT22;2695;49.444;11.054;2023-08-20T05:11:52;27.70;99.90
5346;DHT22;2695;49.444;11.054;2023-08-20T05:14:22;28.30;99.90
5346;DHT22;2695;49.444;11.054;2023-08-20T05:16:50;28.90;99.90
5346;DHT22;2695;49.444;11.054;2023-08-20T05:19:18;29.20;99.90
5346;DHT22;2695;49.444;11.054;2023-08-20T05:21:46;29.60;99.90
5346;DHT22;2695;49.444;11.054;2023-08-20T05:24:14;30.10;99.90
5346;DHT22;2695;49.444;11.054;2023-08-20T05:26:41;30.70;99.90
5346;DHT22;2695;49.444;11.054;2023-08-20T05:29:09;31.20;99.90
5346;DHT22;2695;49.444;11.054;2023-08-20T05:31:39;31.70;99.90
5346;DHT22;2695;49.444;11.054;2023-08-20T05:34:07;32.30;99.90
5346;DHT22;2695;49.444;11.054;2023-08-20T05:36:35;32.90;99.90
5346;DHT22;2695;49.444;11.054;2023-08-20T05:39:03;33.30;99.90
5346;DHT22;2695;49.444;11.054;2023-08-20T05:41:31;33.80;99.20
5346;DHT22;2695;49.444;11.054;2023-08-20T05:43:59;34.20;98.10
5346;DHT22;2695;49.444;11.054;2023-08-20T05:46:27;34.50;97.20
5346;DHT22;2695;49.444;11.054;2023-08-20T05:48:56;34.80;95.90
5346;DHT22;2695;49.444;11.054;2023-08-20T05:51:24;35.10;94.90
5346;DHT22;2695;49.444;11.054;2023-08-20T05:53:52;35.30;93.90
5346;DHT22;2695;49.444;11.054;2023-08-20T05:56:20;35.40;93.10
5346;DHT22;2695;49.444;11.054;2023-08-20T05:58:48;35.80;92.10
5346;DHT22;2695;49.444;11.054;2023-08-20T06:01:16;36.00;91.30
5346;DHT22;2695;49.444;11.054;2023-08-20T06:03:44;36.10;90.60
5346;DHT22;2695;49.444;11.054;2023-08-20T06:06:13;36.50;88.90
5346;DHT22;2695;49.444;11.054;2023-08-20T06:08:41;36.70;87.40
5346;DHT22;2695;49.444;11.054;2023-08-20T06:11:28;37.00;85.10
5346;DHT22;2695;49.444;11.054;2023-08-20T06:13:56;37.50;83.00
5346;DHT22;2695;49.444;11.054;2023-08-20T06:16:24;37.70;80.90
5346;DHT22;2695;49.444;11.054;2023-08-20T06:18:52;37.60;80.00
5346;DHT22;2695;49.444;11.054;2023-08-20T06:21:24;37.80;78.70
5346;DHT22;2695;49.444;11.054;2023-08-20T06:23:52;38.20;76.60
5346;DHT22;2695;49.444;11.054;2023-08-20T06:26:20;38.30;75.70
5346;DHT22;2695;49.444;11.054;2023-08-20T06:28:48;38.40;74.60
5346;DHT22;2695;49.444;11.054;2023-08-20T06:31:16;38.40;73.60
5346;DHT22;2695;49.444;11.054;2023-08-20T06:33:44;38.60;72.90
5346;DHT22;2695;49.444;11.054;2023-08-20T06:36:12;39.00;71.60
5346;DHT22;2695;49.444;11.054;2023-08-20T06:38:41;39.50;69.40
5346;DHT22;2695;49.444;11.054;2023-08-20T06:41:09;39.70;68.10
5346;DHT22;2695;49.444;11.054;2023-08-20T06:43:37;39.80;66.50
5346;DHT22;2695;49.444;11.054;2023-08-20T06:46:05;40.40;64.60
5346;DHT22;2695;49.444;11.054;2023-08-20T06:48:33;40.50;64.30
5346;DHT22;2695;49.444;11.054;2023-08-20T06:51:08;40.90;62.10
5346;DHT22;2695;49.444;11.054;2023-08-20T06:53:36;41.30;60.40
5346;DHT22;2695;49.444;11.054;2023-08-20T06:56:05;41.80;58.70
5346;DHT22;2695;49.444;11.054;2023-08-20T06:58:33;42.10;57.80
5346;DHT22;2695;49.444;11.054;2023-08-20T07:01:01;42.50;56.70
5346;DHT22;2695;49.444;11.054;2023-08-20T07:03:35;42.90;55.70
5346;DHT22;2695;49.444;11.054;2023-08-20T07:06:03;43.40;53.30
5346;DHT22;2695;49.444;11.054;2023-08-20T07:08:32;43.50;52.40
5346;DHT22;2695;49.444;11.054;2023-08-20T07:11:00;43.70;52.20
5346;DHT22;2695;49.444;11.054;2023-08-20T07:13:29;43.90;51.50
5346;DHT22;2695;49.444;11.054;2023-08-20T07:15:57;44.10;50.70
5346;DHT22;2695;49.444;11.054;2023-08-20T07:18:25;44.20;50.10
5346;DHT22;2695;49.444;11.054;2023-08-20T07:20:54;44.60;49.20
5346;DHT22;2695;49.444;11.054;2023-08-20T07:23:23;45.10;48.20
5346;DHT22;2695;49.444;11.054;2023-08-20T07:25:51;45.40;47.30
5346;DHT22;2695;49.444;11.054;2023-08-20T07:28:19;45.50;46.60
5346;DHT22;2695;49.444;11.054;2023-08-20T07:31:08;45.60;46.30
5346;DHT22;2695;49.444;11.054;2023-08-20T07:33:36;45.80;45.40
5346;DHT22;2695;49.444;11.054;2023-08-20T07:36:05;46.10;44.40
5346;DHT22;2695;49.444;11.054;2023-08-20T07:38:32;46.30;43.20
5346;DHT22;2695;49.444;11.054;2023-08-20T07:41:01;46.30;42.50
5346;DHT22;2695;49.444;11.054;2023-08-20T07:43:29;46.30;42.50
5346;DHT22;2695;49.444;11.054;2023-08-20T07:45:56;46.40;41.90
5346;DHT22;2695;49.444;11.054;2023-08-20T07:48:26;46.60;41.90
5346;DHT22;2695;49.444;11.054;2023-08-20T07:50:54;46.70;42.00
5346;DHT22;2695;49.444;11.054;2023-08-20T07:53:22;46.90;40.20
5346;DHT22;2695;49.444;11.054;2023-08-20T07:55:50;47.10;39.50
5346;DHT22;2695;49.444;11.054;2023-08-20T07:58:18;47.20;39.00
5346;DHT22;2695;49.444;11.054;2023-08-20T08:00:46;47.20;38.50
5346;DHT22;2695;49.444;11.054;2023-08-20T08:03:14;47.30;38.30
5346;DHT22;2695;49.444;11.054;2023-08-20T08:05:48;47.20;38.30
5346;DHT22;2695;49.444;11.054;2023-08-20T08:08:16;47.30;38.00
5346;DHT22;2695;49.444;11.054;2023-08-20T08:10:44;47.20;37.70
5346;DHT22;2695;49.444;11.054;2023-08-20T08:13:13;47.10;37.70
5346;DHT22;2695;49.444;11.054;2023-08-20T08:15:41;47.20;38.10
5346;DHT22;2695;49.444;11.054;2023-08-20T08:18:10;47.70;37.60
5346;DHT22;2695;49.444;11.054;2023-08-20T08:20:38;47.60;36.80
5346;DHT22;2695;49.444;11.054;2023-08-20T08:23:07;47.50;36.90
5346;DHT22;2695;49.444;11.054;2023-08-20T08:25:35;47.50;36.60
5346;DHT22;2695;49.444;11.054;2023-08-20T08:28:04;47.60;37.10
5346;DHT22;2695;49.444;11.054;2023-08-20T08:30:32;47.80;36.30
5346;DHT22;2695;49.444;11.054;2023-08-20T08:33:00;47.60;36.50
5346;DHT22;2695;49.444;11.054;2023-08-20T08:35:29;48.00;35.70
5346;DHT22;2695;49.444;11.054;2023-08-20T08:37:57;48.10;35.40
5346;DHT22;2695;49.444;11.054;2023-08-20T08:40:28;48.40;35.30
5346;DHT22;2695;49.444;11.054;2023-08-20T08:42:57;48.70;33.80
5346;DHT22;2695;49.444;11.054;2023-08-20T08:45:26;48.60;34.60
5346;DHT22;2695;49.444;11.054;2023-08-20T08:47:55;48.60;34.20
5346;DHT22;2695;49.444;11.054;2023-08-20T08:50:23;48.40;34.50
5346;DHT22;2695;49.444;11.054;2023-08-20T08:52:52;48.60;34.30
5346;DHT22;2695;49.444;11.054;2023-08-20T08:55:21;48.90;33.50
5346;DHT22;2695;49.444;11.054;2023-08-20T08:57:51;49.00;33.40
5346;DHT22;2695;49.444;11.054;2023-08-20T09:00:19;49.00;33.10
5346;DHT22;2695;49.444;11.054;2023-08-20T09:02:48;49.30;33.10
5346;DHT22;2695;49.444;11.054;2023-08-20T09:05:16;49.70;32.80
5346;DHT22;2695;49.444;11.054;2023-08-20T09:07:44;49.80;32.10
5346;DHT22;2695;49.444;11.054;2023-08-20T09:10:12;50.00;32.20
5346;DHT22;2695;49.444;11.054;2023-08-20T09:12:44;50.20;32.10
5346;DHT22;2695;49.444;11.054;2023-08-20T09:15:14;50.20;31.40
5346;DHT22;2695;49.444;11.054;2023-08-20T09:17:42;50.30;31.20
5346;DHT22;2695;49.444;11.054;2023-08-20T09:20:10;50.20;31.60
5346;DHT22;2695;49.444;11.054;2023-08-20T09:22:39;50.30;31.10
5346;DHT22;2695;49.444;11.054;2023-08-20T09:25:07;50.50;30.60
5346;DHT22;2695;49.444;11.054;2023-08-20T09:27:43;50.50;31.30
5346;DHT22;2695;49.444;11.054;2023-08-20T09:30:19;50.60;31.30
5346;DHT22;2695;49.444;11.054;2023-08-20T09:33:03;51.00;31.10
5346;DHT22;2695;49.444;11.054;2023-08-20T09:35:31;51.00;29.90
5346;DHT22;2695;49.444;11.054;2023-08-20T09:38:00;50.90;29.80
5346;DHT22;2695;49.444;11.054;2023-08-20T09:40:29;50.50;30.00
5346;DHT22;2695;49.444;11.054;2023-08-20T09:42:57;50.30;30.00
5346;DHT22;2695;49.444;11.054;2023-08-20T09:45:28;50.20;29.90
5346;DHT22;2695;49.444;11.054;2023-08-20T09:47:58;49.90;30.30
5346;DHT22;2695;49.444;11.054;2023-08-20T09:50:28;50.00;30.10
5346;DHT22;2695;49.444;11.054;2023-08-20T09:53:06;49.80;30.00
5346;DHT22;2695;49.444;11.054;2023-08-20T09:55:35;49.90;30.10
5346;DHT22;2695;49.444;11.054;2023-08-20T09:58:07;49.80;30.20
5346;DHT22;2695;49.444;11.054;2023-08-20T10:00:36;50.00;30.00
5346;DHT22;2695;49.444;11.054;2023-08-20T10:03:05;50.10;28.80
5346;DHT22;2695;49.444;11.054;2023-08-20T10:05:34;50.00;28.60
5346;DHT22;2695;49.444;11.054;2023-08-20T10:08:03;49.70;28.80
5346;DHT22;2695;49.444;11.054;2023-08-20T10:10:33;49.30;29.20
5346;DHT22;2695;49.444;11.054;2023-08-20T10:13:02;48.80;30.00
5346;DHT22;2695;49.444;11.054;2023-08-20T10:15:30;49.10;30.50
5346;DHT22;2695;49.444;11.054;2023-08-20T10:18:01;49.10;29.50
5346;DHT22;2695;49.444;11.054;2023-08-20T10:20:30;48.70;29.90
5346;DHT22;2695;49.444;11.054;2023-08-20T10:23:01;48.30;30.00
5346;DHT22;2695;49.444;11.054;2023-08-20T10:25:30;47.40;30.70
5346;DHT22;2695;49.444;11.054;2023-08-20T10:28:12;46.50;32.60
5346;DHT22;2695;49.444;11.054;2023-08-20T10:31:08;46.20;33.10
5346;DHT22;2695;49.444;11.054;2023-08-20T10:33:39;46.00;33.30
5346;DHT22;2695;49.444;11.054;2023-08-20T10:36:14;46.70;33.00
5346;DHT22;2695;49.444;11.054;2023-08-20T10:38:45;46.50;33.10
5346;DHT22;2695;49.444;11.054;2023-08-20T10:41:14;45.70;34.40
5346;DHT22;2695;49.444;11.054;2023-08-20T10:43:46;45.30;34.90
5346;DHT22;2695;49.444;11.054;2023-08-20T10:46:16;44.90;35.80
5346;DHT22;2695;49.444;11.054;2023-08-20T10:48:48;44.80;35.00
5346;DHT22;2695;49.444;11.054;2023-08-20T10:51:18;44.60;34.70
5346;DHT22;2695;49.444;11.054;2023-08-20T10:54:02;44.90;34.70
5346;DHT22;2695;49.444;11.054;2023-08-20T10:56:41;44.50;35.50
5346;DHT22;2695;49.444;11.054;2023-08-20T10:59:13;44.00;36.50
5346;DHT22;2695;49.444;11.054;2023-08-20T11:01:44;43.30;36.40
5346;DHT22;2695;49.444;11.054;2023-08-20T11:04:15;43.10;36.90
5346;DHT22;2695;49.444;11.054;2023-08-20T11:06:44;43.20;36.90
5346;DHT22;2695;49.444;11.054;2023-08-20T11:09:12;43.50;36.50
5346;DHT22;2695;49.444;11.054;2023-08-20T11:11:41;43.90;36.30
5346;DHT22;2695;49.444;11.054;2023-08-20T11:14:12;44.50;36.10
5346;DHT22;2695;49.444;11.054;2023-08-20T11:16:42;44.80;35.90
5346;DHT22;2695;49.444;11.054;2023-08-20T11:19:11;44.60;34.70
5346;DHT22;2695;49.444;11.054;2023-08-20T11:21:41;44.30;35.80
5346;DHT22;2695;49.444;11.054;2023-08-20T11:24:10;44.20;35.60
5346;DHT22;2695;49.444;11.054;2023-08-20T11:26:39;44.30;35.40
5346;DHT22;2695;49.444;11.054;2023-08-20T11:29:08;44.20;35.80
5346;DHT22;2695;49.444;11.054;2023-08-20T11:31:37;43.70;36.50
5346;DHT22;2695;49.444;11.054;2023-08-20T11:34:06;43.30;37.20
5346;DHT22;2695;49.444;11.054;2023-08-20T11:36:34;43.00;37.40
5346;DHT22;2695;49.444;11.054;2023-08-20T11:39:04;43.00;37.80
5346;DHT22;2695;49.444;11.054;2023-08-20T11:41:35;43.00;37.90
5346;DHT22;2695;49.444;11.054;2023-08-20T11:44:04;43.10;37.60
5346;DHT22;2695;49.444;11.054;2023-08-20T11:46:32;42.90;37.60
5346;DHT22;2695;49.444;11.054;2023-08-20T11:49:05;42.80;37.70
5346;DHT22;2695;49.444;11.054;2023-08-20T11:51:35;42.60;38.40
5346;DHT22;2695;49.444;11.054;2023-08-20T11:54:07;42.40;37.60
5346;DHT22;2695;49.444;11.054;2023-08-20T11:56:42;42.20;37.80
5346;DHT22;2695;49.444;11.054;2023-08-20T11:59:10;42.00;38.20
5346;DHT22;2695;49.444;11.054;2023-08-20T12:01:39;41.80;38.40
5346;DHT22;2695;49.444;11.054;2023-08-20T12:04:09;41.60;38.70
5346;DHT22;2695;49.444;11.054;2023-08-20T12:06:38;41.40;38.80
5346;DHT22;2695;49.444;11.054;2023-08-20T12:09:20;41.10;39.50
5346;DHT22;2695;49.444;11.054;2023-08-20T12:11:49;41.00;39.70
5346;DHT22;2695;49.444;11.054;2023-08-20T12:14:18;41.00;40.50
5346;DHT22;2695;49.444;11.054;2023-08-20T12:16:46;40.70;40.40
5346;DHT22;2695;49.444;11.054;2023-08-20T12:19:15;40.10;41.50
5346;DHT22;2695;49.444;11.054;2023-08-20T12:21:43;39.60;42.10
5346;DHT22;2695;49.444;11.054;2023-08-20T12:24:11;39.60;42.40
5346;DHT22;2695;49.444;11.054;2023-08-20T12:26:41;39.40;41.70
5346;DHT22;2695;49.444;11.054;2023-08-20T12:29:09;39.00;42.20
5346;DHT22;2695;49.444;11.054;2023-08-20T12:31:38;38.70;42.70
5346;DHT22;2695;49.444;11.054;2023-08-20T12:34:06;38.50;44.50
5346;DHT22;2695;49.444;11.054;2023-08-20T12:36:35;38.70;43.70
5346;DHT22;2695;49.444;11.054;2023-08-20T12:39:04;39.10;41.90
5346;DHT22;2695;49.444;11.054;2023-08-20T12:41:32;39.20;42.10
5346;DHT22;2695;49.444;11.054;2023-08-20T12:44:04;39.10;42.20
5346;DHT22;2695;49.444;11.054;2023-08-20T12:46:32;38.80;42.90
5346;DHT22;2695;49.444;11.054;2023-08-20T12:49:00;38.40;43.50
5346;DHT22;2695;49.444;11.054;2023-08-20T12:51:28;38.30;44.60
5346;DHT22;2695;49.444;11.054;2023-08-20T12:53:56;38.30;44.40
5346;DHT22;2695;49.444;11.054;2023-08-20T12:56:24;38.30;44.20
5346;DHT22;2695;49.444;11.054;2023-08-20T12:58:52;38.40;43.70
5346;DHT22;2695;49.444;11.054;2023-08-20T13:01:21;38.20;43.50
5346;DHT22;2695;49.444;11.054;2023-08-20T13:03:50;38.10;44.30
5346;DHT22;2695;49.444;11.054;2023-08-20T13:06:19;37.90;43.90
5346;DHT22;2695;49.444;11.054;2023-08-20T13:08:48;37.70;44.80
5346;DHT22;2695;49.444;11.054;2023-08-20T13:11:17;37.90;44.70
5346;DHT22;2695;49.444;11.054;2023-08-20T13:13:47;38.00;44.60
5346;DHT22;2695;49.444;11.054;2023-08-20T13:16:17;37.90;44.40
5346;DHT22;2695;49.444;11.054;2023-08-20T13:18:48;38.00;45.10
5346;DHT22;2695;49.444;11.054;2023-08-20T13:21:16;38.00;44.60
5346;DHT22;2695;49.444;11.054;2023-08-20T13:23:44;37.80;44.40
5346;DHT22;2695;49.444;11.054;2023-08-20T13:26:12;37.70;45.20
5346;DHT22;2695;49.444;11.054;2023-08-20T13:28:40;37.60;45.30
5346;DHT22;2695;49.444;11.054;2023-08-20T13:31:08;37.50;45.60
5346;DHT22;2695;49.444;11.054;2023-08-20T13:33:36;37.50;45.80
5346;DHT22;2695;49.444;11.054;2023-08-20T13:36:06;37.40;45.50
5346;DHT22;2695;49.444;11.054;2023-08-20T13:38:33;37.30;45.70
5346;DHT22;2695;49.444;11.054;2023-08-20T13:41:02;37.20;46.40
5346;DHT22;2695;49.444;11.054;2023-08-20T13:43:30;37.20;46.00
5346;DHT22;2695;49.444;11.054;2023-08-20T13:45:58;37.00;46.50
5346;DHT22;2695;49.444;11.054;2023-08-20T13:48:26;36.70;46.60
5346;DHT22;2695;49.444;11.054;2023-08-20T13:50:54;36.60;46.30
5346;DHT22;2695;49.444;11.054;2023-08-20T13:53:24;36.60;46.30
5346;DHT22;2695;49.444;11.054;2023-08-20T13:55:52;36.60;46.70
5346;DHT22;2695;49.444;11.054;2023-08-20T13:58:22;36.70;46.40
5346;DHT22;2695;49.444;11.054;2023-08-20T14:00:55;36.50;45.40
5346;DHT22;2695;49.444;11.054;2023-08-20T14:03:30;36.30;45.70
5346;DHT22;2695;49.444;11.054;2023-08-20T14:05:58;36.40;46.60
5346;DHT22;2695;49.444;11.054;2023-08-20T14:08:27;36.20;46.80
5346;DHT22;2695;49.444;11.054;2023-08-20T14:10:55;36.20;46.90
5346;DHT22;2695;49.444;11.054;2023-08-20T14:13:23;36.20;46.20
5346;DHT22;2695;49.444;11.054;2023-08-20T14:15:52;36.20;45.50
5346;DHT22;2695;49.444;11.054;2023-08-20T14:18:20;36.20;46.20
5346;DHT22;2695;49.444;11.054;2023-08-20T14:20:48;36.20;46.10
5346;DHT22;2695;49.444;11.054;2023-08-20T14:23:16;36.20;46.20
5346;DHT22;2695;49.444;11.054;2023-08-20T14:25:46;36.30;48.60
5346;DHT22;2695;49.444;11.054;2023-08-20T14:28:14;36.40;48.00
5346;DHT22;2695;49.444;11.054;2023-08-20T14:30:42;36.10;46.90
5346;DHT22;2695;49.444;11.054;2023-08-20T14:33:10;35.90;47.00
5346;DHT22;2695;49.444;11.054;2023-08-20T14:35:38;35.80;47.20
5346;DHT22;2695;49.444;11.054;2023-08-20T14:38:07;35.80;48.20
5346;DHT22;2695;49.444;11.054;2023-08-20T14:40:37;35.80;48.20
5346;DHT22;2695;49.444;11.054;2023-08-20T14:43:08;35.80;48.90
5346;DHT22;2695;49.444;11.054;2023-08-20T14:45:36;35.80;48.50
5346;DHT22;2695;49.444;11.054;2023-08-20T14:48:04;35.70;49.20
5346;DHT22;2695;49.444;11.054;2023-08-20T14:50:32;35.80;49.20
5346;DHT22;2695;49.444;11.054;2023-08-20T14:53:00;35.80;49.00
5346;DHT22;2695;49.444;11.054;2023-08-20T14:55:29;35.80;49.60
5346;DHT22;2695;49.444;11.054;2023-08-20T14:57:57;35.90;50.00
5346;DHT22;2695;49.444;11.054;2023-08-20T15:00:26;35.90;49.10
5346;DHT22;2695;49.444;11.054;2023-08-20T15:02:56;35.90;48.90
5346;DHT22;2695;49.444;11.054;2023-08-20T15:05:24;35.80;48.70
5346;DHT22;2695;49.444;11.054;2023-08-20T15:07:52;35.70;48.70
5346;DHT22;2695;49.444;11.054;2023-08-20T15:10:20;35.70;48.60
5346;DHT22;2695;49.444;11.054;2023-08-20T15:12:48;35.60;49.20
5346;DHT22;2695;49.444;11.054;2023-08-20T15:15:16;35.60;49.30
5346;DHT22;2695;49.444;11.054;2023-08-20T15:17:46;35.60;49.50
5346;DHT22;2695;49.444;11.054;2023-08-20T15:20:14;35.40;49.90
5346;DHT22;2695;49.444;11.054;2023-08-20T15:22:42;35.40;49.40
5346;DHT22;2695;49.444;11.054;2023-08-20T15:25:10;35.40;50.00
5346;DHT22;2695;49.444;11.054;2023-08-20T15:27:39;35.40;50.10
5346;DHT22;2695;49.444;11.054;2023-08-20T15:30:08;35.40;50.00
5346;DHT22;2695;49.444;11.054;2023-08-20T15:32:36;35.40;50.20
5346;DHT22;2695;49.444;11.054;2023-08-20T15:35:07;35.40;50.80
5346;DHT22;2695;49.444;11.054;2023-08-20T15:37:35;35.30;51.00
5346;DHT22;2695;49.444;11.054;2023-08-20T15:40:05;35.30;50.80
5346;DHT22;2695;49.444;11.054;2023-08-20T15:42:36;35.20;51.10
5346;DHT22;2695;49.444;11.054;2023-08-20T15:45:04;35.20;51.80
5346;DHT22;2695;49.444;11.054;2023-08-20T15:47:32;35.30;52.10
5346;DHT22;2695;49.444;11.054;2023-08-20T15:50:01;35.30;51.70
5346;DHT22;2695;49.444;11.054;2023-08-20T15:52:31;35.30;51.40
5346;DHT22;2695;49.444;11.054;2023-08-20T15:54:59;35.30;50.60
5346;DHT22;2695;49.444;11.054;2023-08-20T15:57:27;35.30;50.50